createdAt,value
2017-02-02T00:00:13.324Z,99.99
2017-02-02T00:01:24.776Z,99.99
2017-02-02T00:02:36.181Z,99.99
2017-02-02T00:03:47.587Z,99.99
2017-02-02T00:04:58.994Z,99.99
2017-02-02T00:06:10.395Z,99.99
2017-02-02T00:07:21.846Z,99.99
2017-02-02T00:08:33.248Z,99.99
2017-02-02T00:09:44.658Z,99.99
2017-02-02T00:10:56.262Z,99.99
2017-02-02T00:12:07.661Z,99.99
2017-02-02T00:13:19.107Z,99.99
2017-02-02T00:14:30.712Z,99.99
2017-02-02T00:15:42.108Z,99.99
2017-02-02T00:16:53.512Z,99.99
2017-02-02T00:18:04.920Z,99.99
2017-02-02T00:19:16.376Z,99.99
2017-02-02T00:20:27.778Z,99.99
2017-02-02T00:21:39.383Z,99.99
2017-02-02T00:22:50.785Z,99.99
2017-02-02T00:24:02.184Z,99.99
2017-02-02T00:25:13.633Z,99.99
2017-02-02T00:26:25.045Z,99.99
2017-02-02T00:27:36.436Z,99.99
2017-02-02T00:28:47.834Z,99.99
2017-02-02T00:29:59.429Z,99.99
2017-02-02T00:31:10.885Z,99.99
2017-02-02T00:32:22.290Z,99.99
2017-02-02T00:33:33.699Z,99.99
2017-02-02T00:34:45.094Z,99.99
2017-02-02T00:35:56.496Z,99.99
2017-02-02T00:37:07.945Z,99.99
2017-02-02T00:38:19.356Z,99.99
2017-02-02T00:39:30.959Z,99.99
2017-02-02T00:40:42.364Z,99.99
2017-02-02T00:41:53.753Z,99.99
2017-02-02T00:43:05.214Z,99.99
2017-02-02T00:44:16.813Z,99.99
2017-02-02T00:45:28.220Z,99.99
2017-02-02T00:46:39.613Z,99.99
2017-02-02T00:47:51.013Z,99.99
2017-02-02T00:49:02.459Z,99.99
2017-02-02T00:50:13.866Z,99.99
2017-02-02T00:51:25.468Z,99.99
2017-02-02T00:52:36.868Z,99.99
2017-02-02T00:53:48.270Z,99.99
2017-02-02T00:54:59.725Z,99.99
2017-02-02T00:56:11.126Z,99.99
2017-02-02T00:57:22.523Z,99.99
2017-02-02T00:58:33.922Z,99.99
2017-02-02T00:59:45.329Z,99.99
2017-02-02T01:00:56.976Z,99.99
2017-02-02T01:02:08.780Z,99.99
2017-02-02T01:03:20.181Z,99.99
2017-02-02T01:04:31.774Z,99.99
2017-02-02T01:05:43.174Z,99.99
2017-02-02T01:06:54.633Z,99.99
2017-02-02T01:08:06.226Z,99.99
2017-02-02T01:09:17.630Z,99.99
2017-02-02T01:10:29.035Z,99.99
2017-02-02T01:11:40.437Z,99.99
2017-02-02T01:12:51.891Z,99.99
2017-02-02T01:14:03.298Z,99.99
2017-02-02T01:15:14.696Z,99.99
2017-02-02T01:16:26.298Z,99.99
2017-02-02T01:17:37.706Z,99.99
2017-02-02T01:18:49.157Z,99.99
2017-02-02T01:20:00.557Z,99.99
2017-02-02T01:21:11.953Z,99.99
2017-02-02T01:22:23.557Z,99.99
2017-02-02T01:23:34.950Z,99.99
2017-02-02T01:24:46.607Z,99.99
2017-02-02T01:25:58.212Z,99.99
2017-02-02T01:27:09.614Z,99.99
2017-02-02T01:28:21.025Z,99.99
2017-02-02T01:29:32.425Z,99.99
2017-02-02T01:30:44.079Z,99.99
2017-02-02T01:31:55.474Z,99.99
2017-02-02T01:33:06.879Z,99.99
2017-02-02T01:34:18.284Z,99.99
2017-02-02T01:35:29.684Z,99.99
2017-02-02T01:36:41.336Z,99.99
2017-02-02T01:37:52.738Z,99.99
2017-02-02T01:39:04.132Z,99.99
2017-02-02T01:40:15.530Z,99.99
2017-02-02T01:41:27.128Z,99.99
2017-02-02T01:42:38.780Z,99.99
2017-02-02T01:43:50.177Z,99.99
2017-02-02T01:45:01.573Z,99.99
2017-02-02T01:46:13.169Z,99.99
2017-02-02T01:47:24.567Z,99.99
2017-02-02T01:48:36.012Z,99.99
2017-02-02T01:49:47.609Z,99.99
2017-02-02T01:50:59.015Z,99.99
2017-02-02T01:52:10.817Z,99.99
2017-02-02T01:53:22.218Z,99.99
2017-02-02T01:54:33.673Z,99.99
2017-02-02T01:55:45.276Z,99.99
2017-02-02T01:56:56.675Z,99.67
2017-02-02T01:58:08.074Z,99.67
2017-02-02T01:59:19.471Z,99.29
2017-02-02T02:00:31.126Z,99.2
2017-02-02T02:01:42.528Z,98.82
2017-02-02T02:02:53.921Z,98.44
2017-02-02T02:04:05.323Z,98.54
2017-02-02T02:05:16.724Z,99.29
2017-02-02T02:06:28.172Z,99.99
2017-02-02T02:07:39.567Z,99.99
2017-02-02T02:08:51.182Z,99.99
2017-02-02T02:10:02.585Z,99.99
2017-02-02T02:11:13.994Z,99.99
2017-02-02T02:12:25.446Z,99.99
2017-02-02T02:13:37.048Z,99.99
2017-02-02T02:14:48.446Z,99.99
2017-02-02T02:15:59.856Z,99.99
2017-02-02T02:17:11.247Z,99.29
2017-02-02T02:18:22.702Z,99.01
2017-02-02T02:19:34.102Z,98.35
2017-02-02T02:20:45.510Z,99.01
2017-02-02T02:21:57.117Z,98.16
2017-02-02T02:23:08.714Z,97.78
2017-02-02T02:24:20.360Z,97.59
2017-02-02T02:25:31.761Z,97.3
2017-02-02T02:26:43.171Z,97.4
2017-02-02T02:27:54.568Z,97.11
2017-02-02T02:29:05.962Z,96.92
2017-02-02T02:30:17.399Z,96.73
2017-02-02T02:31:28.805Z,97.02
2017-02-02T02:32:40.215Z,96.92
2017-02-02T02:33:52.019Z,97.4
2017-02-02T02:35:03.622Z,98.25
2017-02-02T02:36:15.073Z,98.72
2017-02-02T02:37:26.684Z,98.63
2017-02-02T02:38:38.085Z,99.99
2017-02-02T02:39:49.488Z,99.86
2017-02-02T02:41:00.892Z,99.1
2017-02-02T02:42:12.543Z,99.01
2017-02-02T02:43:23.951Z,98.21
2017-02-02T02:44:35.354Z,98.3
2017-02-02T02:45:46.754Z,97.83
2017-02-02T02:46:58.156Z,97.49
2017-02-02T02:48:09.598Z,97.02
2017-02-02T02:49:20.998Z,97.21
2017-02-02T02:50:32.405Z,96.64
2017-02-02T02:51:43.839Z,97.3
2017-02-02T02:52:55.242Z,96.36
2017-02-02T02:54:06.697Z,96.92
2017-02-02T02:55:18.096Z,96.36
2017-02-02T02:56:29.499Z,95.84
2017-02-02T02:57:40.904Z,95.98
2017-02-02T02:58:52.509Z,95.31
2017-02-02T03:00:03.955Z,95.31
2017-02-02T03:01:15.352Z,95.03
2017-02-02T03:02:26.762Z,95.03
2017-02-02T03:03:38.159Z,95.03
2017-02-02T03:04:49.555Z,94.93
2017-02-02T03:06:01.005Z,95.22
2017-02-02T03:07:12.404Z,95.22
2017-02-02T03:08:23.798Z,95.03
2017-02-02T03:09:35.201Z,94.56
2017-02-02T03:10:46.594Z,94.46
2017-02-02T03:11:58.047Z,95.12
2017-02-02T03:13:09.445Z,94.79
2017-02-02T03:14:20.844Z,95.07
2017-02-02T03:15:32.243Z,95.36
2017-02-02T03:16:43.657Z,95.17
2017-02-02T03:17:55.106Z,94.6
2017-02-02T03:19:06.716Z,94.51
2017-02-02T03:20:18.114Z,94.79
2017-02-02T03:21:29.508Z,95.17
2017-02-02T03:22:40.908Z,95.26
2017-02-02T03:23:52.362Z,95.17
2017-02-02T03:25:03.759Z,94.42
2017-02-02T03:26:15.353Z,94.7
2017-02-02T03:27:26.757Z,94.51
2017-02-02T03:28:38.167Z,94.6
2017-02-02T03:29:49.615Z,94.13
2017-02-02T03:31:01.017Z,94.51
2017-02-02T03:32:12.413Z,94.04
2017-02-02T03:33:23.814Z,94.6
2017-02-02T03:34:35.216Z,94.6
2017-02-02T03:35:46.676Z,94.79
2017-02-02T03:36:58.074Z,95.84
2017-02-02T03:38:09.468Z,97.45
2017-02-02T03:39:20.856Z,98.39
2017-02-02T03:40:32.253Z,98.11
2017-02-02T03:41:43.702Z,97.73
2017-02-02T03:42:55.104Z,97.64
2017-02-02T03:44:06.502Z,97.07
2017-02-02T03:45:18.105Z,97.16
2017-02-02T03:46:29.496Z,97.73
2017-02-02T03:47:40.944Z,98.21
2017-02-02T03:48:52.351Z,99.99
2017-02-02T03:50:03.750Z,99.99
2017-02-02T03:51:15.153Z,99.99
2017-02-02T03:52:26.555Z,99.99
2017-02-02T03:53:38.208Z,99.99
2017-02-02T03:54:49.612Z,99.99
2017-02-02T03:56:01.007Z,99.99
2017-02-02T03:57:12.402Z,99.99
2017-02-02T03:58:23.799Z,99.99
2017-02-02T03:59:35.247Z,99.99
2017-02-02T04:00:46.653Z,99.99
2017-02-02T04:01:58.066Z,99.99
2017-02-02T04:03:09.669Z,99.99
2017-02-02T04:04:21.280Z,99.99
2017-02-02T04:05:32.937Z,99.99
2017-02-02T04:06:44.337Z,99.99
2017-02-02T04:07:55.746Z,99.99
2017-02-02T04:09:07.349Z,99.99
2017-02-02T04:10:18.751Z,99.99
2017-02-02T04:11:30.199Z,99.99
2017-02-02T04:12:42.006Z,99.99
2017-02-02T04:13:53.416Z,99.99
2017-02-02T04:15:05.011Z,99.99
2017-02-02T04:16:16.605Z,99.99
2017-02-02T04:17:28.053Z,99.99
2017-02-02T04:18:39.452Z,99.99
2017-02-02T04:19:50.847Z,99.99
2017-02-02T04:21:02.453Z,99.99
2017-02-02T04:22:14.052Z,99.99
2017-02-02T04:23:25.903Z,99.99
2017-02-02T04:24:37.302Z,99.99
2017-02-02T04:25:48.693Z,99.99
2017-02-02T04:27:00.287Z,99.99
2017-02-02T04:28:11.686Z,99.99
2017-02-02T04:29:23.134Z,99.99
2017-02-02T04:30:34.536Z,99.99
2017-02-02T04:31:45.942Z,99.99
2017-02-02T04:32:57.340Z,99.99
2017-02-02T04:34:08.947Z,99.99
2017-02-02T04:35:20.390Z,99.99
2017-02-02T04:36:31.792Z,99.99
2017-02-02T04:37:43.208Z,99.99
2017-02-02T04:38:54.605Z,99.99
2017-02-02T04:40:06.004Z,99.99
2017-02-02T04:41:17.454Z,99.99
2017-02-02T04:42:28.863Z,99.99
2017-02-02T04:43:40.264Z,99.99
2017-02-02T04:44:51.674Z,99.99
2017-02-02T04:46:03.072Z,99.99
2017-02-02T04:47:14.514Z,99.99
2017-02-02T04:48:26.112Z,99.99
2017-02-02T04:49:37.512Z,99.99
2017-02-02T04:50:49.115Z,99.99
2017-02-02T04:52:00.518Z,99.99
2017-02-02T04:53:12.365Z,99.99
2017-02-02T04:54:23.969Z,99.99
2017-02-02T04:55:35.371Z,99.99
2017-02-02T04:56:46.781Z,99.99
2017-02-02T04:57:58.188Z,99.99
2017-02-02T04:59:09.651Z,99.99
2017-02-02T05:00:21.054Z,99.99
2017-02-02T05:01:32.450Z,99.99
2017-02-02T05:02:44.052Z,99.99
2017-02-02T05:03:55.451Z,99.99
2017-02-02T05:05:07.106Z,99.99
2017-02-02T05:06:18.503Z,99.99
2017-02-02T05:07:29.903Z,99.99
2017-02-02T05:08:41.298Z,99.99
2017-02-02T05:09:52.700Z,99.99
2017-02-02T05:11:04.151Z,99.99
2017-02-02T05:12:15.553Z,99.99
2017-02-02T05:13:26.960Z,99.99
2017-02-02T05:14:38.356Z,99.99
2017-02-02T05:15:49.962Z,99.99
2017-02-02T05:17:01.409Z,99.99
2017-02-02T05:18:12.998Z,99.99
2017-02-02T05:19:24.410Z,99.99
2017-02-02T05:20:35.818Z,99.99
2017-02-02T05:21:47.216Z,99.99
2017-02-02T05:22:58.660Z,99.99
2017-02-02T05:24:10.065Z,99.99
2017-02-02T05:25:21.470Z,99.99
2017-02-02T05:26:32.872Z,99.99
2017-02-02T05:27:44.472Z,99.99
2017-02-02T05:28:55.918Z,99.99
2017-02-02T05:30:07.321Z,99.99
2017-02-02T05:31:18.726Z,99.99
2017-02-02T05:32:30.132Z,99.99
2017-02-02T05:33:41.531Z,99.99
2017-02-02T05:34:52.990Z,99.99
2017-02-02T05:36:04.595Z,99.99
2017-02-02T05:37:15.995Z,99.99
2017-02-02T05:38:27.598Z,99.99
2017-02-02T05:39:39.005Z,99.99
2017-02-02T05:40:50.463Z,99.99
2017-02-02T05:42:01.861Z,99.99
2017-02-02T05:43:13.468Z,99.99
2017-02-02T05:44:24.872Z,99.99
2017-02-02T05:45:36.274Z,99.99
2017-02-02T05:46:47.735Z,99.99
2017-02-02T05:47:59.333Z,99.99
2017-02-02T05:49:10.733Z,99.99
2017-02-02T05:50:22.132Z,99.99
2017-02-02T05:51:33.534Z,99.99
2017-02-02T05:52:44.980Z,99.99
2017-02-02T05:53:56.385Z,99.99
2017-02-02T05:55:07.776Z,99.99
2017-02-02T05:56:19.178Z,99.99
2017-02-02T05:57:30.579Z,99.99
2017-02-02T05:58:42.032Z,99.99
2017-02-02T05:59:53.631Z,99.99
2017-02-02T06:01:05.233Z,99.99
2017-02-02T06:02:16.634Z,99.99
2017-02-02T06:03:28.224Z,99.99
2017-02-02T06:04:39.672Z,99.99
2017-02-02T06:05:51.076Z,99.99
2017-02-02T06:07:02.879Z,99.99
2017-02-02T06:08:14.281Z,99.99
2017-02-02T06:09:25.684Z,99.99
2017-02-02T06:10:37.133Z,99.99
2017-02-02T06:11:48.527Z,99.99
2017-02-02T06:12:59.921Z,99.99
2017-02-02T06:14:11.324Z,99.99
2017-02-02T06:15:22.720Z,99.99
2017-02-02T06:16:34.169Z,99.99
2017-02-02T06:17:45.568Z,99.99
2017-02-02T06:18:56.967Z,99.99
2017-02-02T06:20:08.370Z,99.99
2017-02-02T06:21:19.779Z,99.99
2017-02-02T06:22:31.229Z,99.99
2017-02-02T06:23:42.637Z,99.99
2017-02-02T06:24:54.028Z,99.99
2017-02-02T06:26:05.433Z,99.99
2017-02-02T06:27:16.835Z,99.99
2017-02-02T06:28:28.281Z,99.99
2017-02-02T06:29:39.707Z,99.99
2017-02-02T06:30:51.112Z,99.99
2017-02-02T06:32:02.517Z,99.99
2017-02-02T06:33:13.914Z,99.99
2017-02-02T06:34:25.357Z,99.99
2017-02-02T06:35:36.754Z,99.99
2017-02-02T06:36:48.351Z,99.99
2017-02-02T06:37:59.947Z,99.99
2017-02-02T06:39:11.351Z,99.99
2017-02-02T06:40:22.797Z,99.99
2017-02-02T06:41:34.198Z,99.99
2017-02-02T06:42:45.602Z,99.99
2017-02-02T06:43:57.003Z,99.99
2017-02-02T06:45:08.405Z,99.99
2017-02-02T06:46:19.858Z,99.99
2017-02-02T06:47:31.458Z,99.99
2017-02-02T06:48:42.859Z,99.99
2017-02-02T06:49:54.263Z,99.99
2017-02-02T06:51:05.662Z,99.99
2017-02-02T06:52:17.110Z,99.99
2017-02-02T06:53:28.509Z,99.99
2017-02-02T06:54:39.909Z,99.99
2017-02-02T06:55:51.307Z,99.99
2017-02-02T06:57:02.708Z,99.99
2017-02-02T06:58:14.156Z,99.99
2017-02-02T06:59:25.562Z,99.99
2017-02-02T07:00:36.955Z,99.99
2017-02-02T07:01:48.348Z,99.99
2017-02-02T07:02:59.745Z,99.99
2017-02-02T07:04:11.200Z,99.99
2017-02-02T07:05:22.597Z,99.99
2017-02-02T07:06:34.397Z,99.99
2017-02-02T07:07:45.801Z,99.99
2017-02-02T07:08:57.206Z,99.99
2017-02-02T07:10:08.657Z,99.99
2017-02-02T07:11:20.057Z,99.99
2017-02-02T07:12:31.465Z,99.99
2017-02-02T07:13:42.864Z,99.99
2017-02-02T07:14:54.254Z,99.99
2017-02-02T07:16:05.854Z,99.99
2017-02-02T07:17:17.253Z,99.99
2017-02-02T07:18:28.656Z,99.99
2017-02-02T07:19:40.062Z,99.99
2017-02-02T07:20:51.514Z,99.99
2017-02-02T07:22:03.116Z,99.99
2017-02-02T07:23:14.518Z,99.99
2017-02-02T07:24:25.912Z,99.99
2017-02-02T07:25:37.316Z,99.99
2017-02-02T07:26:48.768Z,99.99
2017-02-02T07:28:00.170Z,99.99
2017-02-02T07:29:11.566Z,99.99
2017-02-02T07:30:22.969Z,99.99
2017-02-02T07:31:34.401Z,99.99
2017-02-02T07:32:45.842Z,99.99
2017-02-02T07:33:57.443Z,99.99
2017-02-02T07:35:08.840Z,99.99
2017-02-02T07:36:20.241Z,99.99
2017-02-02T07:37:31.653Z,99.99
2017-02-02T07:38:43.107Z,99.99
2017-02-02T07:39:54.706Z,99.99
2017-02-02T07:41:06.104Z,99.99
2017-02-02T07:42:17.511Z,99.99
2017-02-02T07:43:28.904Z,99.99
2017-02-02T07:44:40.354Z,99.99
2017-02-02T07:45:51.752Z,99.99
2017-02-02T07:47:03.151Z,99.99
2017-02-02T07:48:14.955Z,99.99
2017-02-02T07:49:26.349Z,99.99
2017-02-02T07:50:38.003Z,99.99
2017-02-02T07:51:49.397Z,99.99
2017-02-02T07:53:00.806Z,99.99
2017-02-02T07:54:12.214Z,99.99
2017-02-02T07:55:23.612Z,99.99
2017-02-02T07:56:35.418Z,99.99
2017-02-02T07:57:46.818Z,99.99
2017-02-02T07:58:58.415Z,99.99
2017-02-02T08:00:10.016Z,99.99
2017-02-02T08:01:21.438Z,99.99
2017-02-02T08:02:32.892Z,99.99
2017-02-02T08:03:44.298Z,99.99
2017-02-02T08:04:55.694Z,99.99
2017-02-02T08:06:07.096Z,99.99
2017-02-02T08:07:18.503Z,99.99
2017-02-02T08:08:29.955Z,99.99
2017-02-02T08:09:41.354Z,99.99
2017-02-02T08:10:52.757Z,99.99
2017-02-02T08:12:04.193Z,99.99
2017-02-02T08:13:15.588Z,99.99
2017-02-02T08:14:27.044Z,99.99
2017-02-02T08:15:38.442Z,99.99
2017-02-02T08:16:49.848Z,99.99
2017-02-02T08:18:01.250Z,99.99
2017-02-02T08:19:12.649Z,99.99
2017-02-02T08:20:24.120Z,99.99
2017-02-02T08:21:35.520Z,99.99
2017-02-02T08:22:46.923Z,99.99
2017-02-02T08:23:58.323Z,99.99
2017-02-02T08:25:09.927Z,99.99
2017-02-02T08:26:21.579Z,99.99
2017-02-02T08:27:32.986Z,99.99
2017-02-02T08:28:44.394Z,99.99
2017-02-02T08:29:55.795Z,99.99
2017-02-02T08:31:07.196Z,99.99
2017-02-02T08:32:18.641Z,99.99
2017-02-02T08:33:30.047Z,99.99
2017-02-02T08:34:41.444Z,99.99
2017-02-02T08:35:52.849Z,99.99
2017-02-02T08:37:04.248Z,99.99
2017-02-02T08:38:15.697Z,99.99
2017-02-02T08:39:27.100Z,99.99
2017-02-02T08:40:38.505Z,99.99
2017-02-02T08:41:49.911Z,99.99
2017-02-02T08:43:01.310Z,99.99
2017-02-02T08:44:12.762Z,99.99
2017-02-02T08:45:24.167Z,99.99
2017-02-02T08:46:35.566Z,99.99
2017-02-02T08:47:47.167Z,99.99
2017-02-02T08:48:58.561Z,99.99
2017-02-02T08:50:10.023Z,99.99
2017-02-02T08:51:21.430Z,99.99
2017-02-02T08:52:32.835Z,99.99
2017-02-02T08:53:44.644Z,99.99
2017-02-02T08:54:56.044Z,99.99
2017-02-02T08:56:07.496Z,99.99
2017-02-02T08:57:18.896Z,99.99
2017-02-02T08:58:30.323Z,99.99
2017-02-02T08:59:41.731Z,99.99
2017-02-02T09:00:53.139Z,99.99
2017-02-02T09:02:04.595Z,99.99
2017-02-02T09:03:16.197Z,99.99
2017-02-02T09:04:27.601Z,99.99
2017-02-02T09:05:39.209Z,99.99
2017-02-02T09:06:50.821Z,99.99
2017-02-02T09:08:02.277Z,99.99
2017-02-02T09:09:13.682Z,99.99
2017-02-02T09:10:25.092Z,99.99
2017-02-02T09:11:36.494Z,99.99
2017-02-02T09:12:47.902Z,99.99
2017-02-02T09:13:59.553Z,99.99
2017-02-02T09:15:11.154Z,99.99
2017-02-02T09:16:22.560Z,99.99
2017-02-02T09:17:34.004Z,99.99
2017-02-02T09:18:45.410Z,99.99
2017-02-02T09:19:57.070Z,99.99
2017-02-02T09:21:08.475Z,99.99
2017-02-02T09:22:19.883Z,99.99
2017-02-02T09:23:31.497Z,99.99
2017-02-02T09:24:42.900Z,99.99
2017-02-02T09:25:54.359Z,99.99
2017-02-02T09:27:05.769Z,99.99
2017-02-02T09:28:17.175Z,99.99
2017-02-02T09:29:28.610Z,99.99
2017-02-02T09:30:40.015Z,99.99
2017-02-02T09:31:51.475Z,99.99
2017-02-02T09:33:02.887Z,99.99
2017-02-02T09:34:14.305Z,99.99
2017-02-02T09:35:25.722Z,99.99
2017-02-02T09:36:37.133Z,99.99
2017-02-02T09:37:48.594Z,99.99
2017-02-02T09:39:00.020Z,99.99
2017-02-02T09:40:11.445Z,99.99
2017-02-02T09:41:23.070Z,99.99
2017-02-02T09:42:34.491Z,99.99
2017-02-02T09:43:45.958Z,99.99
2017-02-02T09:44:57.376Z,99.99
2017-02-02T09:46:08.856Z,99.99
2017-02-02T09:47:20.274Z,99.99
2017-02-02T09:48:31.895Z,99.99
2017-02-02T09:49:43.375Z,97.71
2017-02-02T09:50:55.000Z,96.56
2017-02-02T09:52:06.628Z,98.38
2017-02-02T09:53:18.058Z,96.66
2017-02-02T09:54:29.484Z,93.45
2017-02-02T09:55:41.165Z,94.7
2017-02-02T09:56:52.586Z,92.49
2017-02-02T09:58:04.014Z,91.16
2017-02-02T09:59:15.634Z,93.45
2017-02-02T10:00:27.062Z,90.77
2017-02-02T10:01:38.567Z,90.77
2017-02-02T10:02:49.997Z,91.88
2017-02-02T10:04:01.418Z,93.02
2017-02-02T10:05:12.845Z,93.69
2017-02-02T10:06:24.472Z,96.08
2017-02-02T10:07:35.949Z,94.65
2017-02-02T10:08:47.572Z,95.17
2017-02-02T10:09:58.993Z,96.32
2017-02-02T10:11:10.618Z,96.32
2017-02-02T10:12:22.040Z,97.47
2017-02-02T10:13:33.516Z,96.8
2017-02-02T10:14:44.935Z,98.94
2017-02-02T10:15:56.353Z,99.99
2017-02-02T10:17:07.784Z,99.99
2017-02-02T10:18:19.203Z,99.99
2017-02-02T10:19:30.876Z,99.99
2017-02-02T10:20:42.300Z,99.99
2017-02-02T10:21:53.728Z,99.99
2017-02-02T10:23:05.346Z,99.99
2017-02-02T10:24:16.761Z,99.99
2017-02-02T10:25:28.434Z,99.99
2017-02-02T10:26:40.055Z,99.99
2017-02-02T10:27:51.475Z,99.99
2017-02-02T10:29:02.897Z,99.99
2017-02-02T10:30:14.318Z,99.99
2017-02-02T10:31:25.792Z,99.99
2017-02-02T10:32:37.627Z,99.99
2017-02-02T10:33:49.261Z,99.99
2017-02-02T10:35:00.679Z,99.99
2017-02-02T10:36:12.106Z,98.99
2017-02-02T10:37:23.572Z,95.79
2017-02-02T10:38:34.998Z,95.03
2017-02-02T10:39:46.419Z,92.97
2017-02-02T10:40:57.839Z,91.53
2017-02-02T10:42:09.262Z,89.76
2017-02-02T10:43:20.738Z,87.99
2017-02-02T10:44:32.161Z,86.08
2017-02-02T10:45:43.590Z,84.88
2017-02-02T10:46:55.017Z,83.92
2017-02-02T10:48:06.642Z,83.25
2017-02-02T10:49:18.123Z,82.57
2017-02-02T10:50:29.752Z,83.15
2017-02-02T10:51:41.175Z,81.81
2017-02-02T10:52:52.595Z,81.33
2017-02-02T10:54:04.023Z,81.37
2017-02-02T10:55:15.901Z,80.32
2017-02-02T10:56:27.325Z,79.16
2017-02-02T10:57:38.962Z,78.34
2017-02-02T10:58:50.386Z,78.25
2017-02-02T11:00:01.819Z,77.48
2017-02-02T11:01:13.492Z,78.44
2017-02-02T11:02:24.920Z,77.13
2017-02-02T11:03:36.545Z,75.98
2017-02-02T11:04:47.965Z,76.37
2017-02-02T11:05:59.399Z,77.58
2017-02-02T11:07:11.072Z,78.84
2017-02-02T11:08:22.500Z,79.89
2017-02-02T11:09:33.922Z,81.52
2017-02-02T11:10:45.348Z,82.82
2017-02-02T11:11:56.770Z,84.79
2017-02-02T11:13:08.251Z,86.47
2017-02-02T11:14:19.674Z,88.09
2017-02-02T11:15:31.095Z,90.06
2017-02-02T11:16:42.530Z,91.68
2017-02-02T11:17:53.950Z,91.64
2017-02-02T11:19:05.415Z,92.97
2017-02-02T11:20:17.037Z,93.26
2017-02-02T11:21:28.457Z,93.65
2017-02-02T11:22:39.866Z,94.6
2017-02-02T11:23:51.282Z,94.89
2017-02-02T11:25:02.779Z,94.79
2017-02-02T11:26:14.207Z,95.89
2017-02-02T11:27:25.625Z,97.23
2017-02-02T11:28:37.244Z,98.37
2017-02-02T11:29:48.653Z,98.32
2017-02-02T11:31:00.110Z,98.32
2017-02-02T11:32:11.536Z,99.57
2017-02-02T11:33:23.357Z,98.61
2017-02-02T11:34:34.768Z,98.66
2017-02-02T11:35:46.181Z,99.43
2017-02-02T11:36:57.686Z,99.62
2017-02-02T11:38:09.106Z,98.47
2017-02-02T11:39:20.518Z,97.32
2017-02-02T11:40:31.936Z,96.42
2017-02-02T11:41:43.351Z,95.65
2017-02-02T11:42:54.826Z,91.88
2017-02-02T11:44:06.242Z,90.77
2017-02-02T11:45:17.663Z,89.24
2017-02-02T11:46:29.084Z,87.08
2017-02-02T11:47:40.498Z,87.18
2017-02-02T11:48:51.972Z,87.27
2017-02-02T11:50:03.385Z,88.33
2017-02-02T11:51:14.802Z,87.18
2017-02-02T11:52:26.222Z,86.22
2017-02-02T11:53:37.643Z,85.75
2017-02-02T11:54:49.114Z,85.84
2017-02-02T11:56:00.538Z,86.61
2017-02-02T11:57:11.962Z,86.32
2017-02-02T11:58:23.381Z,86.61
2017-02-02T11:59:34.802Z,85.84
2017-02-02T12:00:46.272Z,85.75
2017-02-02T12:01:57.890Z,85.55
2017-02-02T12:03:09.314Z,85.46
2017-02-02T12:04:20.730Z,85.55
2017-02-02T12:05:32.151Z,85.84
2017-02-02T12:06:43.611Z,86.22
2017-02-02T12:07:55.026Z,86.13
2017-02-02T12:09:06.464Z,85.55
2017-02-02T12:10:17.895Z,84.64
2017-02-02T12:11:29.322Z,84.3
2017-02-02T12:12:40.801Z,83.49
2017-02-02T12:13:52.424Z,83.53
2017-02-02T12:15:03.849Z,83.53
2017-02-02T12:16:15.483Z,82.67
2017-02-02T12:17:26.898Z,84.16
2017-02-02T12:18:38.376Z,85.5
2017-02-02T12:19:49.792Z,86.04
2017-02-02T12:21:01.215Z,85.6
2017-02-02T12:22:12.838Z,85.36
2017-02-02T12:23:24.270Z,84.64
2017-02-02T12:24:35.940Z,84.06
2017-02-02T12:25:47.360Z,82.82
2017-02-02T12:26:58.786Z,83.39
2017-02-02T12:28:10.206Z,83.01
2017-02-02T12:29:21.626Z,81.62
2017-02-02T12:30:33.099Z,81.67
2017-02-02T12:31:44.516Z,82.24
2017-02-02T12:32:55.940Z,82.63
2017-02-02T12:34:07.366Z,82.24
2017-02-02T12:35:18.990Z,82.34
2017-02-02T12:36:30.460Z,81.71
2017-02-02T12:37:41.880Z,82.43
2017-02-02T12:38:53.309Z,82.82
2017-02-02T12:40:04.731Z,84.35
2017-02-02T12:41:16.145Z,84.74
2017-02-02T12:42:27.617Z,83.97
2017-02-02T12:43:39.240Z,84.64
2017-02-02T12:44:50.669Z,84.35
2017-02-02T12:46:02.090Z,84.26
2017-02-02T12:47:13.506Z,84.45
2017-02-02T12:48:24.971Z,85.12
2017-02-02T12:49:36.395Z,85.65
2017-02-02T12:50:47.808Z,85.84
2017-02-02T12:51:59.261Z,85.75
2017-02-02T12:53:10.692Z,86.32
2017-02-02T12:54:22.354Z,87.27
2017-02-02T12:55:33.773Z,87.76
2017-02-02T12:56:45.198Z,87.85
2017-02-02T12:57:56.613Z,87.37
2017-02-02T12:59:08.027Z,87.56
2017-02-02T13:00:19.497Z,86.17
2017-02-02T13:01:30.916Z,85.69
2017-02-02T13:02:42.333Z,85.21
2017-02-02T13:03:53.747Z,83.39
2017-02-02T13:05:05.379Z,83.92
2017-02-02T13:06:16.848Z,83.15
2017-02-02T13:07:28.308Z,82
2017-02-02T13:08:39.723Z,81.81
2017-02-02T13:09:51.136Z,82.38
2017-02-02T13:11:02.552Z,82.19
2017-02-02T13:12:14.248Z,82.73
2017-02-02T13:13:25.671Z,85.02
2017-02-02T13:14:37.102Z,85.31
2017-02-02T13:15:48.523Z,85.5
2017-02-02T13:16:59.945Z,85.02
2017-02-02T13:18:11.612Z,83.97
2017-02-02T13:19:23.038Z,84.45
2017-02-02T13:20:34.459Z,83.68
2017-02-02T13:21:45.882Z,82.96
2017-02-02T13:22:57.502Z,82.09
2017-02-02T13:24:08.973Z,82.76
2017-02-02T13:25:20.802Z,82.67
2017-02-02T13:26:32.244Z,81.9
2017-02-02T13:27:43.657Z,80.56
2017-02-02T13:28:55.071Z,80.56
2017-02-02T13:30:06.544Z,80.99
2017-02-02T13:31:17.967Z,79.74
2017-02-02T13:32:29.386Z,80.12
2017-02-02T13:33:41.012Z,79.93
2017-02-02T13:34:52.428Z,81.43
2017-02-02T13:36:03.896Z,81.71
2017-02-02T13:37:15.516Z,82.96
2017-02-02T13:38:26.962Z,83.92
2017-02-02T13:39:38.381Z,84.35
2017-02-02T13:40:49.805Z,84.92
2017-02-02T13:42:01.272Z,85.6
2017-02-02T13:43:12.687Z,87.08
2017-02-02T13:44:24.101Z,88.48
2017-02-02T13:45:35.523Z,89.05
2017-02-02T13:46:46.942Z,90.39
2017-02-02T13:47:58.413Z,90.63
2017-02-02T13:49:09.831Z,91.97
2017-02-02T13:50:21.255Z,92.83
2017-02-02T13:51:32.684Z,93.98
2017-02-02T13:52:44.106Z,95.03
2017-02-02T13:53:55.570Z,95.89
2017-02-02T13:55:06.986Z,97.33
2017-02-02T13:56:18.393Z,96.51
2017-02-02T13:57:29.808Z,96.61
2017-02-02T13:58:41.462Z,98.23
2017-02-02T13:59:52.925Z,98.23
2017-02-02T14:01:04.345Z,98.52
2017-02-02T14:02:15.756Z,97.66
2017-02-02T14:03:27.379Z,98.23
2017-02-02T14:04:38.997Z,99.09
2017-02-02T14:05:50.463Z,99.99
2017-02-02T14:07:01.892Z,99.66
2017-02-02T14:08:13.501Z,99.9
2017-02-02T14:09:24.916Z,99.99
2017-02-02T14:10:36.333Z,99.99
2017-02-02T14:11:47.799Z,99.99
2017-02-02T14:12:59.218Z,99.99
2017-02-02T14:14:10.633Z,99.99
2017-02-02T14:15:22.052Z,99.99
2017-02-02T14:16:33.475Z,99.99
2017-02-02T14:17:44.942Z,99.99
2017-02-02T14:18:56.358Z,99.99
2017-02-02T14:20:07.973Z,99.99
2017-02-02T14:21:19.622Z,99.99
2017-02-02T14:22:31.038Z,99.99
2017-02-02T14:23:42.907Z,99.99
2017-02-02T14:24:54.323Z,99.99
2017-02-02T14:26:05.740Z,99.99
2017-02-02T14:27:17.162Z,99.99
2017-02-02T14:28:28.579Z,99.99
2017-02-02T14:29:40.043Z,99.99
2017-02-02T14:30:51.456Z,99.99
2017-02-02T14:32:02.871Z,99.99
2017-02-02T14:33:14.289Z,99.99
2017-02-02T14:34:25.906Z,99.99
2017-02-02T14:35:37.370Z,99.99
2017-02-02T14:36:48.786Z,99.99
2017-02-02T14:38:00.203Z,99.99
2017-02-02T14:39:11.612Z,99.99
2017-02-02T14:40:23.032Z,99.99
2017-02-02T14:41:34.682Z,99.99
2017-02-02T14:42:46.300Z,99.99
2017-02-02T14:43:57.709Z,99.99
2017-02-02T14:45:09.125Z,99.99
2017-02-02T14:46:20.540Z,99.99
2017-02-02T14:47:32.004Z,99.99
2017-02-02T14:48:43.418Z,99.99
2017-02-02T14:49:55.032Z,99.99
2017-02-02T14:51:06.445Z,99.99
2017-02-02T14:52:18.079Z,99.99
2017-02-02T14:53:29.540Z,99.99
2017-02-02T14:54:40.953Z,99.99
2017-02-02T14:55:52.773Z,99.99
2017-02-02T14:57:04.218Z,99.99
2017-02-02T14:58:15.834Z,99.99
2017-02-02T14:59:27.499Z,99.99
2017-02-02T15:00:38.924Z,99.99
2017-02-02T15:01:50.342Z,99.99
2017-02-02T15:03:01.753Z,99.99
2017-02-02T15:04:13.165Z,99.99
2017-02-02T15:05:24.669Z,99.99
2017-02-02T15:06:36.078Z,99.99
2017-02-02T15:07:47.494Z,99.99
2017-02-02T15:08:58.907Z,99.99
2017-02-02T15:10:10.317Z,99.99
2017-02-02T15:11:21.776Z,99.99
2017-02-02T15:12:33.188Z,99.99
2017-02-02T15:13:44.801Z,99.99
2017-02-02T15:14:56.217Z,99.99
2017-02-02T15:16:07.825Z,99.99
2017-02-02T15:17:19.295Z,99.99
2017-02-02T15:18:30.704Z,99.99
2017-02-02T15:19:42.117Z,99.99
2017-02-02T15:20:53.732Z,99.99